Tianjin, China
Current Conditions -  °F | °C
As of 10:30 PM on Thursday 27 Nov 2014 (Local Time) from ZBTJ Reporting Station
Overcast Overcast  
Wind Chill:   Ceiling: 3000
Heat Index:   Visibility: 5mi
Dew Point: -4°   Wind: 9mph
Humidity: 53%   Direction: 40°NE
Pressure: 30.24"   Gusts: NA
Location:  39.13°N, 117.2°E
Report Text: ZBTJ 271430Z 04004MPS 8000 OVC030 05/M04 Q1024 NOSIG
Loading
Personal Weather Stations






























Interactive Weather Map New forecast layout! Learn more

10-Day Weather Forecast

Advertisements
Track Severe Weather on mobile